sensor_id;sensor_type;location;lat;lon;timestamp;pressure;altitude;pressure_sealevel;temperature;humidity
34185;BME280;20454;48.100;11.776;2022-07-29T00:00:44;95355.63;;;20.56;60.25
34185;BME280;20454;48.100;11.776;2022-07-29T00:03:11;95355.59;;;20.52;60.34
34185;BME280;20454;48.100;11.776;2022-07-29T00:05:39;95356.38;;;20.50;60.35
34185;BME280;20454;48.100;11.776;2022-07-29T00:08:06;95352.69;;;20.46;60.05
34185;BME280;20454;48.100;11.776;2022-07-29T00:10:32;95344.97;;;20.42;60.41
34185;BME280;20454;48.100;11.776;2022-07-29T00:12:59;95352.69;;;20.46;60.48
34185;BME280;20454;48.100;11.776;2022-07-29T00:15:25;95341.72;;;20.41;60.76
34185;BME280;20454;48.100;11.776;2022-07-29T00:17:50;95348.22;;;20.41;61.01
34185;BME280;20454;48.100;11.776;2022-07-29T00:20:16;95345.34;;;20.38;61.05
34185;BME280;20454;48.100;11.776;2022-07-29T00:22:43;95349.75;;;20.35;61.34
34185;BME280;20454;48.100;11.776;2022-07-29T00:25:09;95346.94;;;20.35;61.22
34185;BME280;20454;48.100;11.776;2022-07-29T00:27:36;95350.50;;;20.32;61.18
34185;BME280;20454;48.100;11.776;2022-07-29T00:30:03;95348.47;;;20.29;61.28
34185;BME280;20454;48.100;11.776;2022-07-29T00:32:29;95344.81;;;20.29;61.23
34185;BME280;20454;48.100;11.776;2022-07-29T00:34:55;95345.19;;;20.24;61.48
34185;BME280;20454;48.100;11.776;2022-07-29T00:37:39;95345.16;;;20.20;61.81
34185;BME280;20454;48.100;11.776;2022-07-29T00:40:07;95334.16;;;20.12;61.71
34185;BME280;20454;48.100;11.776;2022-07-29T00:42:48;95342.28;;;20.17;61.77
34185;BME280;20454;48.100;11.776;2022-07-29T00:45:15;95330.97;;;20.13;61.94
34185;BME280;20454;48.100;11.776;2022-07-29T00:47:41;95326.88;;;20.11;62.10
34185;BME280;20454;48.100;11.776;2022-07-29T00:50:09;95328.88;;;20.10;62.42
34185;BME280;20454;48.100;11.776;2022-07-29T00:52:37;95327.69;;;20.11;62.49
34185;BME280;20454;48.100;11.776;2022-07-29T00:55:05;95322.03;;;20.11;62.37
34185;BME280;20454;48.100;11.776;2022-07-29T00:57:32;95313.09;;;20.06;62.81
34185;BME280;20454;48.100;11.776;2022-07-29T00:59:58;95322.00;;;20.08;62.84
34185;BME280;20454;48.100;11.776;2022-07-29T01:02:24;95321.25;;;20.11;62.81
34185;BME280;20454;48.100;11.776;2022-07-29T01:04:50;95301.00;;;20.05;63.13
34185;BME280;20454;48.100;11.776;2022-07-29T01:07:17;95302.63;;;20.06;63.14
34185;BME280;20454;48.100;11.776;2022-07-29T01:09:45;95308.28;;;20.06;63.71
34185;BME280;20454;48.100;11.776;2022-07-29T01:12:21;95311.91;;;20.07;64.39
34185;BME280;20454;48.100;11.776;2022-07-29T01:14:48;95309.47;;;20.05;64.39
34185;BME280;20454;48.100;11.776;2022-07-29T01:20:07;95315.13;;;20.05;64.35
34185;BME280;20454;48.100;11.776;2022-07-29T01:28:47;95316.66;;;19.99;65.58
34185;BME280;20454;48.100;11.776;2022-07-29T01:40:02;95307.25;;;19.92;65.87
34185;BME280;20454;48.100;11.776;2022-07-29T01:42:38;95306.03;;;19.89;65.94
34185;BME280;20454;48.100;11.776;2022-07-29T01:45:23;95305.22;;;19.89;66.79
34185;BME280;20454;48.100;11.776;2022-07-29T01:51:27;95297.47;;;19.82;67.25
34185;BME280;20454;48.100;11.776;2022-07-29T01:56:31;95303.06;;;19.79;67.84
34185;BME280;20454;48.100;11.776;2022-07-29T01:59:00;95296.19;;;19.76;68.21
34185;BME280;20454;48.100;11.776;2022-07-29T04:31:44;95274.50;;;17.98;81.44
34185;BME280;20454;48.100;11.776;2022-07-29T04:34:11;95281.00;;;18.02;81.33
34185;BME280;20454;48.100;11.776;2022-07-29T04:36:37;95277.00;;;18.03;81.31
34185;BME280;20454;48.100;11.776;2022-07-29T04:39:03;95283.88;;;18.06;81.62
34185;BME280;20454;48.100;11.776;2022-07-29T04:41:29;95273.88;;;18.08;81.33
34185;BME280;20454;48.100;11.776;2022-07-29T04:43:56;95282.81;;;18.14;81.07
34185;BME280;20454;48.100;11.776;2022-07-29T04:46:22;95289.41;;;18.21;81.04
34185;BME280;20454;48.100;11.776;2022-07-29T04:48:48;95291.59;;;18.31;80.63
34185;BME280;20454;48.100;11.776;2022-07-29T04:51:17;95295.78;;;18.41;80.45
34185;BME280;20454;48.100;11.776;2022-07-29T04:53:43;95285.47;;;18.48;80.10
34185;BME280;20454;48.100;11.776;2022-07-29T04:56:08;95287.56;;;18.55;79.78
34185;BME280;20454;48.100;11.776;2022-07-29T04:58:35;95293.78;;;18.64;79.39
34185;BME280;20454;48.100;11.776;2022-07-29T05:01:01;95300.38;;;18.75;79.11
34185;BME280;20454;48.100;11.776;2022-07-29T05:03:27;95298.94;;;18.84;78.26
34185;BME280;20454;48.100;11.776;2022-07-29T05:05:53;95297.47;;;18.94;78.20
34185;BME280;20454;48.100;11.776;2022-07-29T05:08:19;95299.25;;;19.05;77.82
34185;BME280;20454;48.100;11.776;2022-07-29T05:10:45;95306.75;;;19.20;76.57
34185;BME280;20454;48.100;11.776;2022-07-29T05:13:10;95305.69;;;19.32;76.08
34185;BME280;20454;48.100;11.776;2022-07-29T05:15:37;95307.06;;;19.45;74.72
34185;BME280;20454;48.100;11.776;2022-07-29T05:18:04;95306.94;;;19.64;73.93
34185;BME280;20454;48.100;11.776;2022-07-29T05:20:30;95312.78;;;19.81;72.91
34185;BME280;20454;48.100;11.776;2022-07-29T05:22:58;95313.78;;;19.96;71.67
34185;BME280;20454;48.100;11.776;2022-07-29T05:25:25;95305.88;;;20.08;71.08
34185;BME280;20454;48.100;11.776;2022-07-29T05:27:52;95313.25;;;20.20;69.04
34185;BME280;20454;48.100;11.776;2022-07-29T05:30:18;95312.16;;;20.31;69.00
34185;BME280;20454;48.100;11.776;2022-07-29T05:32:44;95313.88;;;20.42;69.12
34185;BME280;20454;48.100;11.776;2022-07-29T05:35:11;95321.25;;;20.51;68.21
34185;BME280;20454;48.100;11.776;2022-07-29T05:37:38;95319.69;;;20.57;68.39
34185;BME280;20454;48.100;11.776;2022-07-29T05:40:05;95317.63;;;20.53;66.81
34185;BME280;20454;48.100;11.776;2022-07-29T05:42:31;95309.91;;;20.47;66.07
34185;BME280;20454;48.100;11.776;2022-07-29T05:44:57;95315.09;;;20.42;66.43
34185;BME280;20454;48.100;11.776;2022-07-29T05:47:23;95325.97;;;20.40;67.21
34185;BME280;20454;48.100;11.776;2022-07-29T05:49:49;95310.94;;;20.32;67.91
34185;BME280;20454;48.100;11.776;2022-07-29T07:33:00;95336.66;;;22.57;59.97
34185;BME280;20454;48.100;11.776;2022-07-29T07:35:26;95334.66;;;22.64;59.26
34185;BME280;20454;48.100;11.776;2022-07-29T07:37:54;95332.59;;;22.68;56.93
34185;BME280;20454;48.100;11.776;2022-07-29T07:40:20;95328.16;;;22.71;57.84
34185;BME280;20454;48.100;11.776;2022-07-29T07:42:46;95331.00;;;22.78;56.96
34185;BME280;20454;48.100;11.776;2022-07-29T07:45:12;95322.09;;;22.83;56.44
34185;BME280;20454;48.100;11.776;2022-07-29T07:47:38;95323.72;;;22.98;56.84
34185;BME280;20454;48.100;11.776;2022-07-29T07:50:07;95327.75;;;23.07;55.09
34185;BME280;20454;48.100;11.776;2022-07-29T07:52:33;95329.41;;;23.19;55.58
34185;BME280;20454;48.100;11.776;2022-07-29T07:55:00;95334.25;;;23.29;55.03
34185;BME280;20454;48.100;11.776;2022-07-29T07:57:26;95329.38;;;23.36;55.11
34185;BME280;20454;48.100;11.776;2022-07-29T07:59:52;95320.44;;;23.45;55.18
34185;BME280;20454;48.100;11.776;2022-07-29T08:02:18;95324.06;;;23.52;54.54
34185;BME280;20454;48.100;11.776;2022-07-29T08:04:43;95322.03;;;23.60;55.08
34185;BME280;20454;48.100;11.776;2022-07-29T08:07:09;95319.56;;;23.65;54.37
34185;BME280;20454;48.100;11.776;2022-07-29T08:09:35;95317.94;;;23.75;53.66
34185;BME280;20454;48.100;11.776;2022-07-29T08:12:02;95315.06;;;23.78;53.57
34185;BME280;20454;48.100;11.776;2022-07-29T08:14:30;95321.56;;;23.89;53.82
34185;BME280;20454;48.100;11.776;2022-07-29T08:16:56;95325.16;;;24.00;52.32
34185;BME280;20454;48.100;11.776;2022-07-29T08:19:22;95324.75;;;24.05;49.99
34185;BME280;20454;48.100;11.776;2022-07-29T08:21:47;95325.94;;;24.11;49.93
34185;BME280;20454;48.100;11.776;2022-07-29T08:24:13;95321.84;;;24.19;48.77
34185;BME280;20454;48.100;11.776;2022-07-29T08:26:57;95327.50;;;24.26;48.98
34185;BME280;20454;48.100;11.776;2022-07-29T08:29:23;95333.16;;;24.33;48.86
34185;BME280;20454;48.100;11.776;2022-07-29T08:31:49;95330.25;;;24.44;49.43
34185;BME280;20454;48.100;11.776;2022-07-29T08:34:14;95335.09;;;24.47;48.51
34185;BME280;20454;48.100;11.776;2022-07-29T08:36:40;95339.56;;;24.58;49.23
34185;BME280;20454;48.100;11.776;2022-07-29T08:39:06;95342.72;;;24.71;48.96
34185;BME280;20454;48.100;11.776;2022-07-29T08:41:32;95340.22;;;24.80;48.20
34185;BME280;20454;48.100;11.776;2022-07-29T08:43:57;95332.03;;;24.89;49.32
34185;BME280;20454;48.100;11.776;2022-07-29T08:46:23;95342.47;;;25.06;47.86
34185;BME280;20454;48.100;11.776;2022-07-29T08:48:50;95332.66;;;25.10;46.88
34185;BME280;20454;48.100;11.776;2022-07-29T08:51:18;95328.97;;;25.17;46.67
34185;BME280;20454;48.100;11.776;2022-07-29T08:53:47;95323.22;;;25.20;47.10
34185;BME280;20454;48.100;11.776;2022-07-29T08:56:15;95314.63;;;25.31;46.86
34185;BME280;20454;48.100;11.776;2022-07-29T08:58:46;95329.06;;;25.50;47.75
34185;BME280;20454;48.100;11.776;2022-07-29T09:01:17;95328.97;;;25.61;46.34
34185;BME280;20454;48.100;11.776;2022-07-29T09:03:46;95335.22;;;25.86;46.67
34185;BME280;20454;48.100;11.776;2022-07-29T09:06:14;95339.47;;;26.08;45.64
34185;BME280;20454;48.100;11.776;2022-07-29T09:08:42;95326.59;;;26.26;44.94
34185;BME280;20454;48.100;11.776;2022-07-29T09:11:09;95331.63;;;26.49;44.34
34185;BME280;20454;48.100;11.776;2022-07-29T09:13:36;95326.13;;;26.65;43.95
34185;BME280;20454;48.100;11.776;2022-07-29T09:16:03;95330.47;;;26.73;43.76
34185;BME280;20454;48.100;11.776;2022-07-29T09:18:41;95329.94;;;26.81;42.82
34185;BME280;20454;48.100;11.776;2022-07-29T09:21:15;95333.84;;;26.64;43.96
34185;BME280;20454;48.100;11.776;2022-07-29T09:26:41;95331.22;;;26.47;45.02
34185;BME280;20454;48.100;11.776;2022-07-29T09:29:18;95328.66;;;26.59;46.00
34185;BME280;20454;48.100;11.776;2022-07-29T09:31:47;95327.09;;;26.81;46.29
34185;BME280;20454;48.100;11.776;2022-07-29T09:34:16;95328.28;;;27.10;46.34
34185;BME280;20454;48.100;11.776;2022-07-29T09:36:45;95319.56;;;27.20;43.65
34185;BME280;20454;48.100;11.776;2022-07-29T09:39:13;95328.78;;;27.31;42.57
34185;BME280;20454;48.100;11.776;2022-07-29T09:41:55;95326.28;;;27.33;43.48
34185;BME280;20454;48.100;11.776;2022-07-29T09:44:22;95313.06;;;27.43;43.45
34185;BME280;20454;48.100;11.776;2022-07-29T09:47:03;95309.56;;;27.55;44.57
34185;BME280;20454;48.100;11.776;2022-07-29T09:49:57;95310.91;;;27.93;43.79
34185;BME280;20454;48.100;11.776;2022-07-29T09:52:28;95318.22;;;28.36;43.44
34185;BME280;20454;48.100;11.776;2022-07-29T09:55:08;95309.53;;;28.59;42.84
34185;BME280;20454;48.100;11.776;2022-07-29T09:57:34;95308.88;;;28.87;42.41
34185;BME280;20454;48.100;11.776;2022-07-29T10:00:13;95298.13;;;29.11;42.46
34185;BME280;20454;48.100;11.776;2022-07-29T10:02:43;95313.28;;;29.27;41.55
34185;BME280;20454;48.100;11.776;2022-07-29T10:05:22;95300.59;;;29.60;39.43
34185;BME280;20454;48.100;11.776;2022-07-29T10:07:54;95299.38;;;29.90;40.09
34185;BME280;20454;48.100;11.776;2022-07-29T10:13:06;95307.56;;;29.75;38.51
34185;BME280;20454;48.100;11.776;2022-07-29T10:15:34;95312.94;;;29.57;40.08
34185;BME280;20454;48.100;11.776;2022-07-29T10:18:06;95307.38;;;29.34;39.52
34185;BME280;20454;48.100;11.776;2022-07-29T10:20:33;95315.41;;;29.23;41.01
34185;BME280;20454;48.100;11.776;2022-07-29T10:22:59;95305.28;;;29.19;41.04
34185;BME280;20454;48.100;11.776;2022-07-29T10:25:25;95312.03;;;29.12;40.83
34185;BME280;20454;48.100;11.776;2022-07-29T10:27:52;95308.31;;;28.96;40.12
34185;BME280;20454;48.100;11.776;2022-07-29T10:30:20;95306.63;;;28.79;41.52
34185;BME280;20454;48.100;11.776;2022-07-29T10:38:44;95303.28;;;28.25;43.25
34185;BME280;20454;48.100;11.776;2022-07-29T10:43:59;95296.38;;;27.84;42.73
34185;BME280;20454;48.100;11.776;2022-07-29T10:46:27;95310.94;;;27.70;42.43
34185;BME280;20454;48.100;11.776;2022-07-29T10:49:14;95306.66;;;27.58;44.14
34185;BME280;20454;48.100;11.776;2022-07-29T10:51:59;95317.22;;;27.38;43.80
34185;BME280;20454;48.100;11.776;2022-07-29T10:57:23;95315.16;;;26.89;45.55
34185;BME280;20454;48.100;11.776;2022-07-29T11:05:10;95312.66;;;26.32;46.69
34185;BME280;20454;48.100;11.776;2022-07-29T11:07:38;95318.09;;;26.23;47.42
34185;BME280;20454;48.100;11.776;2022-07-29T11:15:21;95310.53;;;26.39;47.46
34185;BME280;20454;48.100;11.776;2022-07-29T11:20:43;95312.50;;;26.76;46.77
34185;BME280;20454;48.100;11.776;2022-07-29T11:29:15;95306.38;;;29.25;41.60
34185;BME280;20454;48.100;11.776;2022-07-29T11:31:45;95293.72;;;30.72;39.44
34185;BME280;20454;48.100;11.776;2022-07-29T11:34:31;95288.75;;;31.97;35.38
34185;BME280;20454;48.100;11.776;2022-07-29T11:37:24;95287.66;;;33.02;34.98
34185;BME280;20454;48.100;11.776;2022-07-29T11:47:41;95285.56;;;34.30;28.35
34185;BME280;20454;48.100;11.776;2022-07-29T11:50:16;95282.44;;;34.06;28.66
34185;BME280;20454;48.100;11.776;2022-07-29T11:52:45;95279.06;;;33.81;29.71
34185;BME280;20454;48.100;11.776;2022-07-29T11:55:22;95275.84;;;33.09;30.74
34185;BME280;20454;48.100;11.776;2022-07-29T11:57:56;95268.25;;;32.51;30.93
34185;BME280;20454;48.100;11.776;2022-07-29T12:00:30;95268.47;;;32.01;32.85
34185;BME280;20454;48.100;11.776;2022-07-29T12:03:00;95266.03;;;31.53;32.83
34185;BME280;20454;48.100;11.776;2022-07-29T12:05:44;95275.03;;;31.17;34.22
34185;BME280;20454;48.100;11.776;2022-07-29T12:08:20;95272.53;;;31.19;34.35
34185;BME280;20454;48.100;11.776;2022-07-29T12:10:49;95255.34;;;31.03;34.03
34185;BME280;20454;48.100;11.776;2022-07-29T12:13:18;95263.84;;;30.94;35.27
34185;BME280;20454;48.100;11.776;2022-07-29T12:15:53;95263.97;;;30.78;36.10
34185;BME280;20454;48.100;11.776;2022-07-29T12:18:20;95256.31;;;30.59;34.75
34185;BME280;20454;48.100;11.776;2022-07-29T12:20:47;95256.16;;;30.38;33.60
34185;BME280;20454;48.100;11.776;2022-07-29T12:23:14;95264.28;;;30.14;33.18
34185;BME280;20454;48.100;11.776;2022-07-29T12:25:43;95266.06;;;29.92;34.83
34185;BME280;20454;48.100;11.776;2022-07-29T12:28:12;95261.19;;;29.77;34.09
34185;BME280;20454;48.100;11.776;2022-07-29T12:30:45;95254.66;;;29.76;35.24
34185;BME280;20454;48.100;11.776;2022-07-29T12:35:48;95250.41;;;29.81;36.89
34185;BME280;20454;48.100;11.776;2022-07-29T12:38:15;95242.31;;;29.92;35.06
34185;BME280;20454;48.100;11.776;2022-07-29T12:40:43;95248.72;;;29.83;35.63
34185;BME280;20454;48.100;11.776;2022-07-29T12:43:16;95247.06;;;29.70;35.96
34185;BME280;20454;48.100;11.776;2022-07-29T12:45:46;95250.25;;;29.72;36.21
34185;BME280;20454;48.100;11.776;2022-07-29T12:48:13;95238.69;;;29.75;36.06
34185;BME280;20454;48.100;11.776;2022-07-29T12:51:00;95230.41;;;29.93;36.94
34185;BME280;20454;48.100;11.776;2022-07-29T12:53:27;95235.28;;;30.09;37.61
34185;BME280;20454;48.100;11.776;2022-07-29T12:55:56;95232.31;;;30.12;35.83
34185;BME280;20454;48.100;11.776;2022-07-29T12:58:40;95234.97;;;30.19;35.40
34185;BME280;20454;48.100;11.776;2022-07-29T13:01:12;95239.50;;;30.33;34.70
34185;BME280;20454;48.100;11.776;2022-07-29T13:03:51;95243.50;;;30.89;36.60
34185;BME280;20454;48.100;11.776;2022-07-29T16:20:40;95249.09;;;25.68;45.90
34185;BME280;20454;48.100;11.776;2022-07-29T16:23:06;95255.69;;;25.61;46.61
34185;BME280;20454;48.100;11.776;2022-07-29T16:25:34;95248.03;;;25.51;46.98
34185;BME280;20454;48.100;11.776;2022-07-29T16:28:01;95255.84;;;25.44;47.45
34185;BME280;20454;48.100;11.776;2022-07-29T16:30:26;95266.13;;;25.38;48.74
34185;BME280;20454;48.100;11.776;2022-07-29T16:32:52;95265.78;;;25.29;49.14
34185;BME280;20454;48.100;11.776;2022-07-29T16:35:18;95271.50;;;25.22;49.59
34185;BME280;20454;48.100;11.776;2022-07-29T16:37:44;95268.72;;;25.15;50.27
34185;BME280;20454;48.100;11.776;2022-07-29T16:40:10;95282.59;;;25.13;50.97
34185;BME280;20454;48.100;11.776;2022-07-29T16:42:35;95290.81;;;25.04;51.72
34185;BME280;20454;48.100;11.776;2022-07-29T16:45:07;95285.22;;;24.93;52.15
34185;BME280;20454;48.100;11.776;2022-07-29T16:47:33;95285.66;;;24.88;52.33
34185;BME280;20454;48.100;11.776;2022-07-29T16:49:59;95290.56;;;24.84;53.05
34185;BME280;20454;48.100;11.776;2022-07-29T16:52:25;95295.88;;;24.82;53.50
34185;BME280;20454;48.100;11.776;2022-07-29T16:54:51;95292.25;;;24.78;53.38
34185;BME280;20454;48.100;11.776;2022-07-29T16:57:17;95296.78;;;24.72;53.36
34185;BME280;20454;48.100;11.776;2022-07-29T16:59:42;95297.63;;;24.66;53.72
34185;BME280;20454;48.100;11.776;2022-07-29T18:09:31;95398.69;;;22.79;56.38
34185;BME280;20454;48.100;11.776;2022-07-29T18:11:57;95415.72;;;22.72;56.54
34185;BME280;20454;48.100;11.776;2022-07-29T18:14:22;95420.16;;;22.66;57.35
34185;BME280;20454;48.100;11.776;2022-07-29T18:16:48;95423.34;;;22.58;58.13
34185;BME280;20454;48.100;11.776;2022-07-29T18:19:14;95417.28;;;22.52;57.60
34185;BME280;20454;48.100;11.776;2022-07-29T18:21:40;95437.44;;;22.40;57.44
34185;BME280;20454;48.100;11.776;2022-07-29T18:24:06;95426.00;;;22.19;57.78
34185;BME280;20454;48.100;11.776;2022-07-29T18:26:32;95419.47;;;22.12;58.72
34185;BME280;20454;48.100;11.776;2022-07-29T18:28:58;95419.44;;;22.05;58.29
34185;BME280;20454;48.100;11.776;2022-07-29T18:31:24;95422.28;;;22.01;59.66
34185;BME280;20454;48.100;11.776;2022-07-29T18:33:50;95422.31;;;22.08;59.02
34185;BME280;20454;48.100;11.776;2022-07-29T18:36:15;95418.22;;;21.99;58.38
34185;BME280;20454;48.100;11.776;2022-07-29T18:38:42;95429.13;;;21.97;58.30
34185;BME280;20454;48.100;11.776;2022-07-29T18:41:08;95418.59;;;21.90;58.44
34185;BME280;20454;48.100;11.776;2022-07-29T18:43:34;95421.34;;;21.80;58.47
34185;BME280;20454;48.100;11.776;2022-07-29T18:46:00;95426.97;;;21.73;58.83
34185;BME280;20454;48.100;11.776;2022-07-29T18:48:26;95428.56;;;21.67;59.53
34185;BME280;20454;48.100;11.776;2022-07-29T18:50:51;95434.91;;;21.53;59.70
34185;BME280;20454;48.100;11.776;2022-07-29T18:53:17;95446.97;;;21.47;59.82
34185;BME280;20454;48.100;11.776;2022-07-29T18:55:43;95448.09;;;21.35;60.48
34185;BME280;20454;48.100;11.776;2022-07-29T18:58:09;95451.66;;;21.25;60.57
34185;BME280;20454;48.100;11.776;2022-07-29T19:00:35;95448.38;;;21.20;60.51
34185;BME280;20454;48.100;11.776;2022-07-29T19:03:01;95437.38;;;21.11;60.57
34185;BME280;20454;48.100;11.776;2022-07-29T19:05:27;95454.34;;;21.11;60.48
34185;BME280;20454;48.100;11.776;2022-07-29T19:07:53;95454.72;;;21.06;60.86
34185;BME280;20454;48.100;11.776;2022-07-29T19:10:21;95463.53;;;20.98;60.48
34185;BME280;20454;48.100;11.776;2022-07-29T19:12:47;95459.47;;;20.95;60.72
34185;BME280;20454;48.100;11.776;2022-07-29T19:15:12;95465.91;;;20.92;61.64
34185;BME280;20454;48.100;11.776;2022-07-29T19:17:38;95474.75;;;20.87;62.23
34185;BME280;20454;48.100;11.776;2022-07-29T19:20:05;95484.72;;;20.78;62.74
34185;BME280;20454;48.100;11.776;2022-07-29T19:22:31;95492.28;;;20.67;63.79
34185;BME280;20454;48.100;11.776;2022-07-29T19:24:58;95492.56;;;20.58;64.22
34185;BME280;20454;48.100;11.776;2022-07-29T19:27:23;95495.31;;;20.52;65.01
34185;BME280;20454;48.100;11.776;2022-07-29T19:29:50;95502.09;;;20.44;65.93
34185;BME280;20454;48.100;11.776;2022-07-29T19:32:16;95500.84;;;20.41;66.40
34185;BME280;20454;48.100;11.776;2022-07-29T19:34:42;95523.78;;;20.36;66.60
34185;BME280;20454;48.100;11.776;2022-07-29T19:37:27;95519.25;;;20.28;67.22
34185;BME280;20454;48.100;11.776;2022-07-29T19:39:53;95524.75;;;20.18;67.97
34185;BME280;20454;48.100;11.776;2022-07-29T19:42:19;95529.94;;;20.12;69.25
34185;BME280;20454;48.100;11.776;2022-07-29T19:44:45;95528.91;;;20.01;71.64
34185;BME280;20454;48.100;11.776;2022-07-29T19:47:10;95513.69;;;19.83;73.12
34185;BME280;20454;48.100;11.776;2022-07-29T19:49:36;95528.22;;;19.82;75.04
34185;BME280;20454;48.100;11.776;2022-07-29T19:52:04;95519.69;;;19.78;76.32
34185;BME280;20454;48.100;11.776;2022-07-29T19:54:30;95521.53;;;19.67;79.02
34185;BME280;20454;48.100;11.776;2022-07-29T19:56:55;95517.78;;;19.60;79.59
34185;BME280;20454;48.100;11.776;2022-07-29T19:59:21;95522.03;;;19.47;81.54
34185;BME280;20454;48.100;11.776;2022-07-29T20:01:47;95533.13;;;19.36;83.61
34185;BME280;20454;48.100;11.776;2022-07-29T20:04:13;95536.25;;;19.31;83.28
34185;BME280;20454;48.100;11.776;2022-07-29T20:06:38;95527.25;;;19.22;84.82
34185;BME280;20454;48.100;11.776;2022-07-29T20:09:05;95527.94;;;19.19;84.25
34185;BME280;20454;48.100;11.776;2022-07-29T20:11:31;95534.78;;;19.18;86.47
34185;BME280;20454;48.100;11.776;2022-07-29T20:14:02;95534.66;;;19.11;86.82
34185;BME280;20454;48.100;11.776;2022-07-29T20:16:30;95534.53;;;19.04;86.39
34185;BME280;20454;48.100;11.776;2022-07-29T20:18:57;95538.13;;;19.01;87.89
34185;BME280;20454;48.100;11.776;2022-07-29T20:21:23;95544.13;;;19.00;87.66
34185;BME280;20454;48.100;11.776;2022-07-29T20:23:52;95535.97;;;18.95;88.16
34185;BME280;20454;48.100;11.776;2022-07-29T20:26:18;95542.28;;;18.88;87.69
34185;BME280;20454;48.100;11.776;2022-07-29T20:28:44;95536.53;;;18.81;87.59
34185;BME280;20454;48.100;11.776;2022-07-29T20:31:09;95539.28;;;18.78;88.56
34185;BME280;20454;48.100;11.776;2022-07-29T20:33:36;95535.13;;;18.72;88.24
34185;BME280;20454;48.100;11.776;2022-07-29T20:36:02;95545.13;;;18.69;89.68
34185;BME280;20454;48.100;11.776;2022-07-29T20:38:27;95538.91;;;18.60;87.95
34185;BME280;20454;48.100;11.776;2022-07-29T20:40:55;95543.22;;;18.54;88.96
34185;BME280;20454;48.100;11.776;2022-07-29T20:43:24;95535.06;;;18.49;90.03
34185;BME280;20454;48.100;11.776;2022-07-29T20:45:50;95535.06;;;18.49;91.24
34185;BME280;20454;48.100;11.776;2022-07-29T20:48:16;95540.56;;;18.42;91.93
34185;BME280;20454;48.100;11.776;2022-07-29T20:50:42;95550.91;;;18.38;92.29
34185;BME280;20454;48.100;11.776;2022-07-29T20:53:09;95547.94;;;18.31;92.49
34185;BME280;20454;48.100;11.776;2022-07-29T20:55:35;95548.53;;;18.21;93.72
34185;BME280;20454;48.100;11.776;2022-07-29T20:58:01;95535.13;;;18.15;94.17
34185;BME280;20454;48.100;11.776;2022-07-29T21:00:27;95545.09;;;18.12;94.10
34185;BME280;20454;48.100;11.776;2022-07-29T21:02:53;95549.13;;;18.11;94.18
34185;BME280;20454;48.100;11.776;2022-07-29T21:05:19;95539.84;;;18.11;94.25
34185;BME280;20454;48.100;11.776;2022-07-29T21:07:45;95544.13;;;18.05;95.01
34185;BME280;20454;48.100;11.776;2022-07-29T21:10:11;95546.06;;;18.01;95.55
34185;BME280;20454;48.100;11.776;2022-07-29T21:12:38;95547.22;;;18.00;95.64
34185;BME280;20454;48.100;11.776;2022-07-29T21:15:04;95541.06;;;17.94;95.95
34185;BME280;20454;48.100;11.776;2022-07-29T21:17:32;95540.63;;;17.92;96.38
34185;BME280;20454;48.100;11.776;2022-07-29T21:20:03;95551.88;;;17.92;96.31
34185;BME280;20454;48.100;11.776;2022-07-29T21:22:28;95554.28;;;17.90;96.28
34185;BME280;20454;48.100;11.776;2022-07-29T21:24:54;95550.25;;;17.91;96.53
34185;BME280;20454;48.100;11.776;2022-07-29T21:27:20;95549.00;;;17.89;96.84
34185;BME280;20454;48.100;11.776;2022-07-29T21:30:06;95541.50;;;17.77;97.55
34185;BME280;20454;48.100;11.776;2022-07-29T21:32:32;95545.19;;;17.81;97.53
34185;BME280;20454;48.100;11.776;2022-07-29T21:34:58;95549.19;;;17.80;97.76
34185;BME280;20454;48.100;11.776;2022-07-29T21:37:24;95542.22;;;17.74;98.16
34185;BME280;20454;48.100;11.776;2022-07-29T21:39:50;95553.09;;;17.76;98.38
34185;BME280;20454;48.100;11.776;2022-07-29T21:42:16;95552.75;;;17.77;98.92
34185;BME280;20454;48.100;11.776;2022-07-29T21:44:41;95551.47;;;17.75;98.92
34185;BME280;20454;48.100;11.776;2022-07-29T21:47:08;95545.03;;;17.74;99.38
34185;BME280;20454;48.100;11.776;2022-07-29T21:49:35;95542.28;;;17.78;99.36
34185;BME280;20454;48.100;11.776;2022-07-29T21:52:00;95549.94;;;17.77;99.84
34185;BME280;20454;48.100;11.776;2022-07-29T21:54:26;95545.38;;;17.73;99.61
34185;BME280;20454;48.100;11.776;2022-07-29T21:56:52;95541.78;;;17.72;99.98
34185;BME280;20454;48.100;11.776;2022-07-29T21:59:18;95547.03;;;17.74;100.00
34185;BME280;20454;48.100;11.776;2022-07-29T22:01:44;95551.84;;;17.73;100.00
34185;BME280;20454;48.100;11.776;2022-07-29T22:04:10;95541.69;;;17.69;99.91
34185;BME280;20454;48.100;11.776;2022-07-29T22:06:35;95546.88;;;17.67;99.61
34185;BME280;20454;48.100;11.776;2022-07-29T22:09:02;95541.25;;;17.67;99.69
34185;BME280;20454;48.100;11.776;2022-07-29T22:11:27;95545.69;;;17.68;99.70
34185;BME280;20454;48.100;11.776;2022-07-29T22:13:53;95534.50;;;17.71;99.64
34185;BME280;20454;48.100;11.776;2022-07-29T22:16:19;95528.88;;;17.71;99.37
34185;BME280;20454;48.100;11.776;2022-07-29T22:18:45;95535.78;;;17.74;99.65
34185;BME280;20454;48.100;11.776;2022-07-29T22:21:13;95533.16;;;17.65;98.82
34185;BME280;20454;48.100;11.776;2022-07-29T22:23:40;95525.34;;;17.59;99.38
34185;BME280;20454;48.100;11.776;2022-07-29T22:26:06;95528.25;;;17.62;98.99
34185;BME280;20454;48.100;11.776;2022-07-29T22:28:31;95538.34;;;17.63;99.59
34185;BME280;20454;48.100;11.776;2022-07-29T22:30:57;95533.44;;;17.60;99.16
34185;BME280;20454;48.100;11.776;2022-07-29T22:33:23;95533.78;;;17.59;98.83
34185;BME280;20454;48.100;11.776;2022-07-29T22:35:49;95536.25;;;17.60;98.47
34185;BME280;20454;48.100;11.776;2022-07-29T22:38:16;95535.72;;;17.55;98.09